sensor_id;sensor_type;location;lat;lon;timestamp;P1;durP1;ratioP1;P2;durP2;ratioP2
67508;SDS011;54354;44.724;11.284;2023-02-17T00:00:45;117.38;;;64.50;;
67508;SDS011;54354;44.724;11.284;2023-02-17T00:03:11;140.13;;;59.88;;
67508;SDS011;54354;44.724;11.284;2023-02-17T00:05:37;173.95;;;61.03;;
67508;SDS011;54354;44.724;11.284;2023-02-17T00:08:04;153.60;;;59.65;;
67508;SDS011;54354;44.724;11.284;2023-02-17T00:10:29;150.43;;;57.45;;
67508;SDS011;54354;44.724;11.284;2023-02-17T00:12:55;192.13;;;58.05;;
67508;SDS011;54354;44.724;11.284;2023-02-17T00:15:20;174.75;;;57.53;;
67508;SDS011;54354;44.724;11.284;2023-02-17T00:17:46;252.23;;;62.22;;
67508;SDS011;54354;44.724;11.284;2023-02-17T00:20:11;144.98;;;57.95;;
67508;SDS011;54354;44.724;11.284;2023-02-17T00:22:37;129.85;;;54.75;;
67508;SDS011;54354;44.724;11.284;2023-02-17T00:25:02;107.85;;;55.03;;
67508;SDS011;54354;44.724;11.284;2023-02-17T00:27:28;145.73;;;54.15;;
67508;SDS011;54354;44.724;11.284;2023-02-17T00:29:53;118.85;;;55.67;;
67508;SDS011;54354;44.724;11.284;2023-02-17T00:32:19;112.55;;;55.00;;
67508;SDS011;54354;44.724;11.284;2023-02-17T00:34:44;87.10;;;59.75;;
67508;SDS011;54354;44.724;11.284;2023-02-17T00:37:12;84.90;;;59.78;;
67508;SDS011;54354;44.724;11.284;2023-02-17T00:39:37;74.13;;;58.88;;
67508;SDS011;54354;44.724;11.284;2023-02-17T00:42:03;69.80;;;54.75;;
67508;SDS011;54354;44.724;11.284;2023-02-17T00:44:28;74.20;;;57.55;;
67508;SDS011;54354;44.724;11.284;2023-02-17T00:46:54;77.60;;;60.38;;
67508;SDS011;54354;44.724;11.284;2023-02-17T00:49:21;69.82;;;55.53;;
67508;SDS011;54354;44.724;11.284;2023-02-17T00:51:48;69.93;;;55.55;;
67508;SDS011;54354;44.724;11.284;2023-02-17T00:54:14;71.72;;;56.78;;
67508;SDS011;54354;44.724;11.284;2023-02-17T00:56:40;65.78;;;53.92;;
67508;SDS011;54354;44.724;11.284;2023-02-17T00:59:06;65.68;;;53.17;;
67508;SDS011;54354;44.724;11.284;2023-02-17T01:01:32;71.85;;;56.72;;
67508;SDS011;54354;44.724;11.284;2023-02-17T01:03:58;61.38;;;52.05;;
67508;SDS011;54354;44.724;11.284;2023-02-17T01:06:29;64.78;;;50.88;;
67508;SDS011;54354;44.724;11.284;2023-02-17T01:08:58;75.43;;;50.15;;
67508;SDS011;54354;44.724;11.284;2023-02-17T01:11:26;61.25;;;50.42;;
67508;SDS011;54354;44.724;11.284;2023-02-17T01:13:56;62.20;;;50.75;;
67508;SDS011;54354;44.724;11.284;2023-02-17T01:16:35;58.78;;;52.38;;
67508;SDS011;54354;44.724;11.284;2023-02-17T01:19:03;72.50;;;49.95;;
67508;SDS011;54354;44.724;11.284;2023-02-17T01:21:30;62.80;;;50.28;;
67508;SDS011;54354;44.724;11.284;2023-02-17T01:23:57;74.95;;;51.50;;
67508;SDS011;54354;44.724;11.284;2023-02-17T01:28:53;76.22;;;50.97;;
67508;SDS011;54354;44.724;11.284;2023-02-17T01:31:20;86.22;;;53.78;;
67508;SDS011;54354;44.724;11.284;2023-02-17T01:33:46;79.65;;;53.10;;
67508;SDS011;54354;44.724;11.284;2023-02-17T01:36:13;90.07;;;56.20;;
67508;SDS011;54354;44.724;11.284;2023-02-17T01:38:40;81.82;;;53.55;;
67508;SDS011;54354;44.724;11.284;2023-02-17T01:41:06;66.05;;;54.08;;
67508;SDS011;54354;44.724;11.284;2023-02-17T01:43:33;86.88;;;58.13;;
67508;SDS011;54354;44.724;11.284;2023-02-17T01:46:01;70.07;;;53.92;;
67508;SDS011;54354;44.724;11.284;2023-02-17T01:48:29;85.43;;;56.65;;
67508;SDS011;54354;44.724;11.284;2023-02-17T01:51:05;150.45;;;53.85;;
67508;SDS011;54354;44.724;11.284;2023-02-17T01:56:07;59.85;;;51.03;;
67508;SDS011;54354;44.724;11.284;2023-02-17T01:58:37;56.20;;;50.15;;
67508;SDS011;54354;44.724;11.284;2023-02-17T02:01:06;54.08;;;48.30;;
67508;SDS011;54354;44.724;11.284;2023-02-17T02:03:33;53.53;;;47.95;;
67508;SDS011;54354;44.724;11.284;2023-02-17T02:06:02;56.53;;;50.35;;
67508;SDS011;54354;44.724;11.284;2023-02-17T02:08:33;53.65;;;48.03;;
67508;SDS011;54354;44.724;11.284;2023-02-17T02:11:22;56.72;;;50.58;;
67508;SDS011;54354;44.724;11.284;2023-02-17T02:13:48;58.90;;;51.55;;
67508;SDS011;54354;44.724;11.284;2023-02-17T02:21:48;58.97;;;52.20;;
67508;SDS011;54354;44.724;11.284;2023-02-17T02:27:07;56.47;;;50.20;;
67508;SDS011;54354;44.724;11.284;2023-02-17T02:33:19;56.90;;;50.63;;
67508;SDS011;54354;44.724;11.284;2023-02-17T02:36:12;58.17;;;51.78;;
67508;SDS011;54354;44.724;11.284;2023-02-17T02:38:56;59.95;;;53.35;;
67508;SDS011;54354;44.724;11.284;2023-02-17T02:41:26;61.05;;;52.55;;
67508;SDS011;54354;44.724;11.284;2023-02-17T02:43:56;56.10;;;49.28;;
67508;SDS011;54354;44.724;11.284;2023-02-17T02:46:22;55.83;;;49.65;;
67508;SDS011;54354;44.724;11.284;2023-02-17T02:48:48;57.88;;;51.40;;
67508;SDS011;54354;44.724;11.284;2023-02-17T02:51:27;55.00;;;48.42;;
67508;SDS011;54354;44.724;11.284;2023-02-17T03:09:50;51.20;;;45.60;;
67508;SDS011;54354;44.724;11.284;2023-02-17T03:12:18;53.72;;;47.45;;
67508;SDS011;54354;44.724;11.284;2023-02-17T03:14:44;54.55;;;47.08;;
67508;SDS011;54354;44.724;11.284;2023-02-17T03:17:12;57.88;;;48.28;;
67508;SDS011;54354;44.724;11.284;2023-02-17T03:19:37;53.97;;;47.17;;
67508;SDS011;54354;44.724;11.284;2023-02-17T03:24:35;59.38;;;48.15;;
67508;SDS011;54354;44.724;11.284;2023-02-17T03:27:01;58.72;;;48.60;;
67508;SDS011;54354;44.724;11.284;2023-02-17T03:29:27;58.03;;;49.13;;
67508;SDS011;54354;44.724;11.284;2023-02-17T03:31:52;58.17;;;47.67;;
67508;SDS011;54354;44.724;11.284;2023-02-17T03:34:18;56.95;;;48.08;;
67508;SDS011;54354;44.724;11.284;2023-02-17T03:36:44;65.50;;;50.15;;
67508;SDS011;54354;44.724;11.284;2023-02-17T03:39:09;64.78;;;49.80;;
67508;SDS011;54354;44.724;11.284;2023-02-17T03:41:35;67.18;;;50.45;;
67508;SDS011;54354;44.724;11.284;2023-02-17T03:44:00;59.30;;;48.53;;
67508;SDS011;54354;44.724;11.284;2023-02-17T03:46:26;64.03;;;49.28;;
67508;SDS011;54354;44.724;11.284;2023-02-17T03:48:51;62.60;;;47.67;;
67508;SDS011;54354;44.724;11.284;2023-02-17T03:51:21;65.28;;;48.92;;
67508;SDS011;54354;44.724;11.284;2023-02-17T03:53:48;64.25;;;48.35;;
67508;SDS011;54354;44.724;11.284;2023-02-17T03:56:14;68.70;;;50.03;;
67508;SDS011;54354;44.724;11.284;2023-02-17T03:58:40;71.88;;;52.00;;
67508;SDS011;54354;44.724;11.284;2023-02-17T04:01:07;70.68;;;50.40;;
67508;SDS011;54354;44.724;11.284;2023-02-17T04:03:34;78.22;;;50.45;;
67508;SDS011;54354;44.724;11.284;2023-02-17T04:06:00;69.85;;;48.92;;
67508;SDS011;54354;44.724;11.284;2023-02-17T04:08:26;78.60;;;53.58;;
67508;SDS011;54354;44.724;11.284;2023-02-17T04:10:52;70.68;;;50.55;;
67508;SDS011;54354;44.724;11.284;2023-02-17T04:13:18;73.00;;;51.28;;
67508;SDS011;54354;44.724;11.284;2023-02-17T04:15:44;73.80;;;53.10;;
67508;SDS011;54354;44.724;11.284;2023-02-17T04:18:09;81.95;;;54.72;;
67508;SDS011;54354;44.724;11.284;2023-02-17T04:20:35;83.63;;;56.97;;
67508;SDS011;54354;44.724;11.284;2023-02-17T04:23:01;94.13;;;58.28;;
67508;SDS011;54354;44.724;11.284;2023-02-17T04:25:26;89.57;;;58.35;;
67508;SDS011;54354;44.724;11.284;2023-02-17T04:27:51;91.60;;;56.50;;
67508;SDS011;54354;44.724;11.284;2023-02-17T04:30:17;89.82;;;56.20;;
67508;SDS011;54354;44.724;11.284;2023-02-17T04:32:42;90.00;;;55.60;;
67508;SDS011;54354;44.724;11.284;2023-02-17T04:35:08;99.63;;;58.03;;
67508;SDS011;54354;44.724;11.284;2023-02-17T04:37:33;93.15;;;57.38;;
67508;SDS011;54354;44.724;11.284;2023-02-17T04:39:59;92.05;;;56.50;;
67508;SDS011;54354;44.724;11.284;2023-02-17T04:42:25;88.90;;;57.30;;
67508;SDS011;54354;44.724;11.284;2023-02-17T04:44:50;101.63;;;59.38;;
67508;SDS011;54354;44.724;11.284;2023-02-17T04:47:16;98.65;;;58.67;;
67508;SDS011;54354;44.724;11.284;2023-02-17T04:49:41;101.32;;;59.33;;
67508;SDS011;54354;44.724;11.284;2023-02-17T04:52:07;94.40;;;56.40;;
67508;SDS011;54354;44.724;11.284;2023-02-17T04:54:32;101.88;;;57.28;;
67508;SDS011;54354;44.724;11.284;2023-02-17T04:56:58;99.53;;;57.75;;
67508;SDS011;54354;44.724;11.284;2023-02-17T04:59:23;95.30;;;57.88;;
67508;SDS011;54354;44.724;11.284;2023-02-17T05:01:49;95.03;;;55.88;;
67508;SDS011;54354;44.724;11.284;2023-02-17T05:04:14;99.05;;;57.08;;
67508;SDS011;54354;44.724;11.284;2023-02-17T05:06:40;95.57;;;56.05;;
67508;SDS011;54354;44.724;11.284;2023-02-17T05:09:05;95.88;;;56.47;;
67508;SDS011;54354;44.724;11.284;2023-02-17T05:11:31;90.22;;;53.28;;
67508;SDS011;54354;44.724;11.284;2023-02-17T05:13:56;95.47;;;58.40;;
67508;SDS011;54354;44.724;11.284;2023-02-17T05:16:22;92.47;;;54.10;;
67508;SDS011;54354;44.724;11.284;2023-02-17T05:18:47;87.60;;;55.35;;
67508;SDS011;54354;44.724;11.284;2023-02-17T05:21:13;89.50;;;55.78;;
67508;SDS011;54354;44.724;11.284;2023-02-17T05:23:38;95.43;;;57.22;;
67508;SDS011;54354;44.724;11.284;2023-02-17T05:26:08;96.53;;;57.85;;
67508;SDS011;54354;44.724;11.284;2023-02-17T05:28:35;92.95;;;54.30;;
67508;SDS011;54354;44.724;11.284;2023-02-17T05:31:01;93.18;;;57.05;;
67508;SDS011;54354;44.724;11.284;2023-02-17T05:33:27;98.55;;;56.35;;
67508;SDS011;54354;44.724;11.284;2023-02-17T05:35:53;99.65;;;56.55;;
67508;SDS011;54354;44.724;11.284;2023-02-17T05:38:19;94.18;;;56.28;;
67508;SDS011;54354;44.724;11.284;2023-02-17T05:40:44;102.85;;;57.80;;
67508;SDS011;54354;44.724;11.284;2023-02-17T05:43:10;102.68;;;59.63;;
67508;SDS011;54354;44.724;11.284;2023-02-17T05:45:35;103.78;;;59.22;;
67508;SDS011;54354;44.724;11.284;2023-02-17T05:48:01;107.10;;;60.22;;
67508;SDS011;54354;44.724;11.284;2023-02-17T05:50:27;108.70;;;61.90;;
67508;SDS011;54354;44.724;11.284;2023-02-17T05:53:00;106.13;;;60.42;;
67508;SDS011;54354;44.724;11.284;2023-02-17T05:55:26;110.82;;;62.95;;
67508;SDS011;54354;44.724;11.284;2023-02-17T05:57:51;111.32;;;63.80;;
67508;SDS011;54354;44.724;11.284;2023-02-17T06:00:17;104.22;;;60.58;;
67508;SDS011;54354;44.724;11.284;2023-02-17T06:02:42;107.60;;;61.22;;
67508;SDS011;54354;44.724;11.284;2023-02-17T06:05:08;106.90;;;62.28;;
67508;SDS011;54354;44.724;11.284;2023-02-17T06:07:34;115.65;;;63.08;;
67508;SDS011;54354;44.724;11.284;2023-02-17T06:09:59;111.93;;;60.95;;
67508;SDS011;54354;44.724;11.284;2023-02-17T06:12:25;104.25;;;57.95;;
67508;SDS011;54354;44.724;11.284;2023-02-17T06:14:50;105.90;;;59.35;;
67508;SDS011;54354;44.724;11.284;2023-02-17T06:17:16;105.15;;;56.78;;
67508;SDS011;54354;44.724;11.284;2023-02-17T06:19:42;103.00;;;55.92;;
67508;SDS011;54354;44.724;11.284;2023-02-17T06:22:07;106.55;;;59.60;;
67508;SDS011;54354;44.724;11.284;2023-02-17T06:24:33;94.63;;;53.67;;
67508;SDS011;54354;44.724;11.284;2023-02-17T06:26:59;103.45;;;56.33;;
67508;SDS011;54354;44.724;11.284;2023-02-17T06:29:25;94.63;;;53.83;;
67508;SDS011;54354;44.724;11.284;2023-02-17T06:31:51;92.93;;;53.90;;
67508;SDS011;54354;44.724;11.284;2023-02-17T06:34:17;99.95;;;54.60;;
67508;SDS011;54354;44.724;11.284;2023-02-17T06:36:43;103.55;;;55.08;;
67508;SDS011;54354;44.724;11.284;2023-02-17T06:39:08;96.35;;;52.50;;
67508;SDS011;54354;44.724;11.284;2023-02-17T06:41:34;88.28;;;51.58;;
67508;SDS011;54354;44.724;11.284;2023-02-17T06:44:00;95.57;;;54.65;;
67508;SDS011;54354;44.724;11.284;2023-02-17T06:46:25;91.63;;;51.08;;
67508;SDS011;54354;44.724;11.284;2023-02-17T06:48:51;95.35;;;51.72;;
67508;SDS011;54354;44.724;11.284;2023-02-17T06:51:16;89.47;;;50.28;;
67508;SDS011;54354;44.724;11.284;2023-02-17T06:53:42;85.22;;;48.33;;
67508;SDS011;54354;44.724;11.284;2023-02-17T06:56:08;89.53;;;48.05;;
67508;SDS011;54354;44.724;11.284;2023-02-17T06:58:34;94.35;;;51.10;;
67508;SDS011;54354;44.724;11.284;2023-02-17T07:01:01;86.80;;;47.42;;
67508;SDS011;54354;44.724;11.284;2023-02-17T07:03:26;96.85;;;50.58;;
67508;SDS011;54354;44.724;11.284;2023-02-17T07:05:55;82.30;;;48.50;;
67508;SDS011;54354;44.724;11.284;2023-02-17T07:08:24;83.75;;;46.22;;
67508;SDS011;54354;44.724;11.284;2023-02-17T07:10:49;90.50;;;49.00;;
67508;SDS011;54354;44.724;11.284;2023-02-17T07:13:15;87.13;;;48.75;;
67508;SDS011;54354;44.724;11.284;2023-02-17T07:15:40;93.82;;;46.95;;
67508;SDS011;54354;44.724;11.284;2023-02-17T07:18:06;87.97;;;49.47;;
67508;SDS011;54354;44.724;11.284;2023-02-17T07:20:31;89.22;;;47.33;;
67508;SDS011;54354;44.724;11.284;2023-02-17T07:22:58;82.50;;;45.30;;
67508;SDS011;54354;44.724;11.284;2023-02-17T07:25:24;95.22;;;47.67;;
67508;SDS011;54354;44.724;11.284;2023-02-17T07:27:50;97.55;;;49.85;;
67508;SDS011;54354;44.724;11.284;2023-02-17T07:30:16;102.22;;;50.70;;
67508;SDS011;54354;44.724;11.284;2023-02-17T07:32:42;89.45;;;48.33;;
67508;SDS011;54354;44.724;11.284;2023-02-17T07:35:09;85.05;;;45.78;;
67508;SDS011;54354;44.724;11.284;2023-02-17T07:37:35;83.35;;;44.55;;
67508;SDS011;54354;44.724;11.284;2023-02-17T07:40:00;77.95;;;44.17;;
67508;SDS011;54354;44.724;11.284;2023-02-17T07:42:26;80.22;;;43.55;;
67508;SDS011;54354;44.724;11.284;2023-02-17T07:44:52;80.95;;;45.78;;
67508;SDS011;54354;44.724;11.284;2023-02-17T07:47:18;78.63;;;45.35;;
67508;SDS011;54354;44.724;11.284;2023-02-17T07:49:43;83.53;;;45.72;;
67508;SDS011;54354;44.724;11.284;2023-02-17T07:52:09;81.10;;;43.60;;
67508;SDS011;54354;44.724;11.284;2023-02-17T07:54:34;81.85;;;43.95;;
67508;SDS011;54354;44.724;11.284;2023-02-17T07:57:00;85.38;;;43.17;;
67508;SDS011;54354;44.724;11.284;2023-02-17T07:59:26;83.75;;;43.97;;
67508;SDS011;54354;44.724;11.284;2023-02-17T08:01:51;75.13;;;42.45;;
67508;SDS011;54354;44.724;11.284;2023-02-17T08:04:17;83.28;;;42.13;;
67508;SDS011;54354;44.724;11.284;2023-02-17T08:06:42;87.93;;;44.65;;
67508;SDS011;54354;44.724;11.284;2023-02-17T08:09:11;85.20;;;46.08;;
67508;SDS011;54354;44.724;11.284;2023-02-17T08:11:55;74.13;;;43.17;;
67508;SDS011;54354;44.724;11.284;2023-02-17T08:14:39;82.10;;;44.92;;
67508;SDS011;54354;44.724;11.284;2023-02-17T08:17:05;79.65;;;44.58;;
67508;SDS011;54354;44.724;11.284;2023-02-17T08:19:31;78.80;;;42.92;;
67508;SDS011;54354;44.724;11.284;2023-02-17T08:21:57;75.72;;;41.47;;
67508;SDS011;54354;44.724;11.284;2023-02-17T08:24:23;76.88;;;41.30;;
67508;SDS011;54354;44.724;11.284;2023-02-17T08:26:50;84.25;;;43.03;;
67508;SDS011;54354;44.724;11.284;2023-02-17T08:29:16;81.60;;;42.80;;
67508;SDS011;54354;44.724;11.284;2023-02-17T08:31:41;79.65;;;42.65;;
67508;SDS011;54354;44.724;11.284;2023-02-17T08:34:08;78.13;;;41.80;;
67508;SDS011;54354;44.724;11.284;2023-02-17T08:36:35;75.57;;;42.35;;
67508;SDS011;54354;44.724;11.284;2023-02-17T08:39:02;78.22;;;42.55;;
67508;SDS011;54354;44.724;11.284;2023-02-17T08:41:30;79.07;;;42.92;;
67508;SDS011;54354;44.724;11.284;2023-02-17T08:43:58;73.15;;;41.92;;
67508;SDS011;54354;44.724;11.284;2023-02-17T08:46:25;71.03;;;40.22;;
67508;SDS011;54354;44.724;11.284;2023-02-17T08:48:52;76.28;;;41.90;;
67508;SDS011;54354;44.724;11.284;2023-02-17T08:51:19;77.05;;;42.88;;
67508;SDS011;54354;44.724;11.284;2023-02-17T08:53:48;70.35;;;38.70;;
67508;SDS011;54354;44.724;11.284;2023-02-17T08:56:14;67.72;;;38.40;;
67508;SDS011;54354;44.724;11.284;2023-02-17T08:58:40;70.68;;;39.72;;
67508;SDS011;54354;44.724;11.284;2023-02-17T09:01:05;71.65;;;39.53;;
67508;SDS011;54354;44.724;11.284;2023-02-17T09:03:34;64.63;;;37.60;;
67508;SDS011;54354;44.724;11.284;2023-02-17T09:06:02;63.72;;;38.05;;
67508;SDS011;54354;44.724;11.284;2023-02-17T09:08:28;62.88;;;37.20;;
67508;SDS011;54354;44.724;11.284;2023-02-17T09:10:53;68.50;;;36.67;;
67508;SDS011;54354;44.724;11.284;2023-02-17T09:13:19;63.65;;;37.35;;
67508;SDS011;54354;44.724;11.284;2023-02-17T09:15:44;59.00;;;36.78;;
67508;SDS011;54354;44.724;11.284;2023-02-17T09:18:10;66.18;;;38.35;;
67508;SDS011;54354;44.724;11.284;2023-02-17T09:20:36;59.60;;;36.33;;
67508;SDS011;54354;44.724;11.284;2023-02-17T09:23:04;66.95;;;38.05;;
67508;SDS011;54354;44.724;11.284;2023-02-17T09:25:29;67.18;;;36.22;;
67508;SDS011;54354;44.724;11.284;2023-02-17T09:27:55;59.58;;;36.10;;
67508;SDS011;54354;44.724;11.284;2023-02-17T09:30:21;63.20;;;37.08;;
67508;SDS011;54354;44.724;11.284;2023-02-17T09:32:46;61.20;;;38.95;;
67508;SDS011;54354;44.724;11.284;2023-02-17T09:35:12;67.60;;;38.97;;
67508;SDS011;54354;44.724;11.284;2023-02-17T09:37:39;70.90;;;39.13;;
67508;SDS011;54354;44.724;11.284;2023-02-17T09:40:06;66.63;;;38.35;;
67508;SDS011;54354;44.724;11.284;2023-02-17T09:42:35;62.30;;;36.33;;
67508;SDS011;54354;44.724;11.284;2023-02-17T09:45:05;64.38;;;39.42;;
67508;SDS011;54354;44.724;11.284;2023-02-17T09:47:39;64.93;;;39.08;;
67508;SDS011;54354;44.724;11.284;2023-02-17T09:50:14;60.25;;;35.15;;
67508;SDS011;54354;44.724;11.284;2023-02-17T09:52:44;56.00;;;35.17;;
67508;SDS011;54354;44.724;11.284;2023-02-17T09:55:24;56.45;;;35.97;;
67508;SDS011;54354;44.724;11.284;2023-02-17T09:57:55;57.55;;;36.10;;
67508;SDS011;54354;44.724;11.284;2023-02-17T10:00:32;59.03;;;36.22;;
67508;SDS011;54354;44.724;11.284;2023-02-17T10:06:20;63.65;;;38.13;;
67508;SDS011;54354;44.724;11.284;2023-02-17T10:14:05;56.53;;;35.85;;
67508;SDS011;54354;44.724;11.284;2023-02-17T10:16:52;63.15;;;37.03;;
67508;SDS011;54354;44.724;11.284;2023-02-17T10:19:25;53.55;;;33.45;;
67508;SDS011;54354;44.724;11.284;2023-02-17T10:22:05;54.45;;;34.33;;
67508;SDS011;54354;44.724;11.284;2023-02-17T10:24:36;46.70;;;32.00;;
67508;SDS011;54354;44.724;11.284;2023-02-17T10:32:58;56.95;;;35.88;;
67508;SDS011;54354;44.724;11.284;2023-02-17T10:40:59;45.55;;;31.33;;
67508;SDS011;54354;44.724;11.284;2023-02-17T10:43:28;49.38;;;32.17;;
67508;SDS011;54354;44.724;11.284;2023-02-17T10:45:56;50.15;;;32.83;;
67508;SDS011;54354;44.724;11.284;2023-02-17T10:48:27;40.15;;;28.77;;
67508;SDS011;54354;44.724;11.284;2023-02-17T10:50:59;37.85;;;27.55;;
67508;SDS011;54354;44.724;11.284;2023-02-17T10:53:32;34.75;;;25.00;;
67508;SDS011;54354;44.724;11.284;2023-02-17T11:01:24;38.80;;;27.45;;
67508;SDS011;54354;44.724;11.284;2023-02-17T11:03:59;40.35;;;27.35;;
67508;SDS011;54354;44.724;11.284;2023-02-17T11:06:25;36.33;;;25.33;;
67508;SDS011;54354;44.724;11.284;2023-02-17T11:08:53;35.42;;;24.60;;
67508;SDS011;54354;44.724;11.284;2023-02-17T11:11:30;37.92;;;25.77;;
67508;SDS011;54354;44.724;11.284;2023-02-17T11:14:18;47.97;;;27.77;;
67508;SDS011;54354;44.724;11.284;2023-02-17T11:16:53;39.38;;;27.25;;
67508;SDS011;54354;44.724;11.284;2023-02-17T11:19:26;38.08;;;27.10;;
67508;SDS011;54354;44.724;11.284;2023-02-17T11:21:55;41.17;;;27.50;;
67508;SDS011;54354;44.724;11.284;2023-02-17T11:24:23;42.15;;;28.42;;
67508;SDS011;54354;44.724;11.284;2023-02-17T11:29:28;39.63;;;27.58;;
67508;SDS011;54354;44.724;11.284;2023-02-17T11:34:23;38.20;;;25.40;;
67508;SDS011;54354;44.724;11.284;2023-02-17T11:39:47;38.88;;;26.65;;
67508;SDS011;54354;44.724;11.284;2023-02-17T11:42:25;41.50;;;26.88;;
67508;SDS011;54354;44.724;11.284;2023-02-17T11:44:54;34.58;;;25.42;;
67508;SDS011;54354;44.724;11.284;2023-02-17T12:03:19;35.50;;;25.38;;
67508;SDS011;54354;44.724;11.284;2023-02-17T12:06:00;34.13;;;24.98;;
67508;SDS011;54354;44.724;11.284;2023-02-17T12:14:54;37.55;;;26.13;;
67508;SDS011;54354;44.724;11.284;2023-02-17T12:17:29;38.85;;;26.80;;
67508;SDS011;54354;44.724;11.284;2023-02-17T12:25:49;40.97;;;26.73;;
67508;SDS011;54354;44.724;11.284;2023-02-17T12:31:24;37.35;;;26.48;;
67508;SDS011;54354;44.724;11.284;2023-02-17T12:37:17;42.35;;;27.60;;
67508;SDS011;54354;44.724;11.284;2023-02-17T12:39:50;34.63;;;25.27;;
67508;SDS011;54354;44.724;11.284;2023-02-17T12:42:22;34.70;;;25.92;;
67508;SDS011;54354;44.724;11.284;2023-02-17T12:44:50;39.10;;;25.45;;
67508;SDS011;54354;44.724;11.284;2023-02-17T12:52:45;32.33;;;23.80;;
67508;SDS011;54354;44.724;11.284;2023-02-17T12:55:25;32.70;;;24.60;;
67508;SDS011;54354;44.724;11.284;2023-02-17T12:58:00;34.13;;;24.77;;
67508;SDS011;54354;44.724;11.284;2023-02-17T13:00:34;33.70;;;24.00;;
67508;SDS011;54354;44.724;11.284;2023-02-17T13:03:03;35.35;;;24.35;;
67508;SDS011;54354;44.724;11.284;2023-02-17T13:05:32;31.30;;;23.40;;
67508;SDS011;54354;44.724;11.284;2023-02-17T13:08:05;32.20;;;23.10;;
67508;SDS011;54354;44.724;11.284;2023-02-17T13:10:35;38.08;;;24.55;;
67508;SDS011;54354;44.724;11.284;2023-02-17T13:13:04;35.05;;;25.27;;
67508;SDS011;54354;44.724;11.284;2023-02-17T13:15:48;30.35;;;22.70;;
67508;SDS011;54354;44.724;11.284;2023-02-17T13:18:27;31.90;;;21.48;;
67508;SDS011;54354;44.724;11.284;2023-02-17T13:20:56;30.67;;;21.80;;
67508;SDS011;54354;44.724;11.284;2023-02-17T13:23:40;30.15;;;22.35;;
67508;SDS011;54354;44.724;11.284;2023-02-17T13:26:29;32.38;;;22.45;;
67508;SDS011;54354;44.724;11.284;2023-02-17T13:36:51;30.25;;;20.98;;
67508;SDS011;54354;44.724;11.284;2023-02-17T13:41:53;34.25;;;20.73;;
67508;SDS011;54354;44.724;11.284;2023-02-17T13:49:24;27.90;;;21.02;;
67508;SDS011;54354;44.724;11.284;2023-02-17T13:51:52;30.02;;;21.67;;
67508;SDS011;54354;44.724;11.284;2023-02-17T13:54:19;24.40;;;20.17;;
67508;SDS011;54354;44.724;11.284;2023-02-17T13:56:53;27.88;;;21.25;;
67508;SDS011;54354;44.724;11.284;2023-02-17T13:59:24;29.30;;;20.27;;
67508;SDS011;54354;44.724;11.284;2023-02-17T14:01:51;26.38;;;19.95;;
67508;SDS011;54354;44.724;11.284;2023-02-17T14:04:23;26.92;;;20.17;;
67508;SDS011;54354;44.724;11.284;2023-02-17T14:06:50;31.60;;;19.27;;
67508;SDS011;54354;44.724;11.284;2023-02-17T14:09:22;27.10;;;19.38;;
67508;SDS011;54354;44.724;11.284;2023-02-17T14:11:55;24.02;;;18.15;;
67508;SDS011;54354;44.724;11.284;2023-02-17T14:14:23;26.48;;;17.95;;
67508;SDS011;54354;44.724;11.284;2023-02-17T14:17:00;22.90;;;16.98;;
67508;SDS011;54354;44.724;11.284;2023-02-17T14:19:41;25.17;;;17.83;;
67508;SDS011;54354;44.724;11.284;2023-02-17T14:24:58;22.85;;;17.45;;
67508;SDS011;54354;44.724;11.284;2023-02-17T14:27:24;25.75;;;17.80;;
67508;SDS011;54354;44.724;11.284;2023-02-17T14:29:49;27.63;;;18.48;;
67508;SDS011;54354;44.724;11.284;2023-02-17T14:32:32;20.40;;;16.15;;
67508;SDS011;54354;44.724;11.284;2023-02-17T14:35:19;19.55;;;16.02;;
67508;SDS011;54354;44.724;11.284;2023-02-17T14:37:47;21.80;;;16.25;;
67508;SDS011;54354;44.724;11.284;2023-02-17T14:42:41;20.08;;;15.52;;
67508;SDS011;54354;44.724;11.284;2023-02-17T14:45:07;20.17;;;15.55;;
67508;SDS011;54354;44.724;11.284;2023-02-17T14:47:33;25.98;;;17.00;;
67508;SDS011;54354;44.724;11.284;2023-02-17T14:49:58;20.77;;;15.23;;
67508;SDS011;54354;44.724;11.284;2023-02-17T14:52:24;25.00;;;15.90;;
67508;SDS011;54354;44.724;11.284;2023-02-17T14:54:50;22.15;;;15.15;;
67508;SDS011;54354;44.724;11.284;2023-02-17T14:57:17;18.67;;;15.00;;
67508;SDS011;54354;44.724;11.284;2023-02-17T14:59:48;17.83;;;13.85;;
67508;SDS011;54354;44.724;11.284;2023-02-17T15:02:18;20.63;;;14.02;;
67508;SDS011;54354;44.724;11.284;2023-02-17T15:04:45;14.63;;;12.52;;
67508;SDS011;54354;44.724;11.284;2023-02-17T15:07:12;14.05;;;11.90;;
67508;SDS011;54354;44.724;11.284;2023-02-17T15:09:40;14.48;;;11.85;;
67508;SDS011;54354;44.724;11.284;2023-02-17T15:12:12;19.00;;;12.25;;
67508;SDS011;54354;44.724;11.284;2023-02-17T15:14:39;16.52;;;13.43;;
67508;SDS011;54354;44.724;11.284;2023-02-17T15:17:05;17.88;;;13.60;;
67508;SDS011;54354;44.724;11.284;2023-02-17T15:19:31;17.40;;;12.90;;
67508;SDS011;54354;44.724;11.284;2023-02-17T15:21:58;18.65;;;12.68;;
67508;SDS011;54354;44.724;11.284;2023-02-17T15:24:29;17.13;;;13.65;;
67508;SDS011;54354;44.724;11.284;2023-02-17T15:26:57;17.57;;;13.87;;
67508;SDS011;54354;44.724;11.284;2023-02-17T15:29:23;18.63;;;13.50;;
67508;SDS011;54354;44.724;11.284;2023-02-17T15:31:51;19.73;;;13.18;;
67508;SDS011;54354;44.724;11.284;2023-02-17T15:34:19;19.92;;;14.20;;
67508;SDS011;54354;44.724;11.284;2023-02-17T15:36:47;18.15;;;12.85;;
67508;SDS011;54354;44.724;11.284;2023-02-17T15:39:14;18.23;;;12.90;;
67508;SDS011;54354;44.724;11.284;2023-02-17T15:41:42;17.17;;;13.38;;
67508;SDS011;54354;44.724;11.284;2023-02-17T15:44:13;13.50;;;12.05;;
67508;SDS011;54354;44.724;11.284;2023-02-17T15:46:41;14.82;;;12.93;;
67508;SDS011;54354;44.724;11.284;2023-02-17T15:49:09;17.20;;;13.43;;
67508;SDS011;54354;44.724;11.284;2023-02-17T15:51:35;19.08;;;13.25;;
67508;SDS011;54354;44.724;11.284;2023-02-17T15:54:01;15.38;;;12.65;;
67508;SDS011;54354;44.724;11.284;2023-02-17T15:56:29;16.35;;;13.38;;
67508;SDS011;54354;44.724;11.284;2023-02-17T15:58:59;18.23;;;13.10;;
67508;SDS011;54354;44.724;11.284;2023-02-17T16:01:32;16.02;;;13.15;;
67508;SDS011;54354;44.724;11.284;2023-02-17T16:03:58;23.80;;;13.73;;
67508;SDS011;54354;44.724;11.284;2023-02-17T16:06:24;18.90;;;13.95;;
67508;SDS011;54354;44.724;11.284;2023-02-17T16:08:51;18.63;;;12.88;;
67508;SDS011;54354;44.724;11.284;2023-02-17T16:11:17;18.48;;;13.25;;
67508;SDS011;54354;44.724;11.284;2023-02-17T16:13:44;16.63;;;12.65;;
67508;SDS011;54354;44.724;11.284;2023-02-17T16:16:18;18.95;;;12.98;;
67508;SDS011;54354;44.724;11.284;2023-02-17T16:18:57;18.75;;;13.75;;
67508;SDS011;54354;44.724;11.284;2023-02-17T16:21:23;17.80;;;12.32;;
67508;SDS011;54354;44.724;11.284;2023-02-17T16:23:49;27.85;;;14.13;;